createdAt,value
2022-10-19T00:02:22.813Z,2.97
2022-10-19T00:04:49.579Z,2.92
2022-10-19T00:07:16.168Z,3.13
2022-10-19T00:09:45.758Z,2.83
2022-10-19T00:12:13.233Z,2.90
2022-10-19T00:14:39.879Z,2.50
2022-10-19T00:17:06.537Z,2.45
2022-10-19T00:19:33.176Z,2.75
2022-10-19T00:21:59.762Z,2.28
2022-10-19T00:24:26.413Z,2.30
2022-10-19T00:26:53.044Z,2.30
2022-10-19T00:29:19.745Z,2.45
2022-10-19T00:31:48.527Z,2.58
2022-10-19T00:34:15.194Z,2.72
2022-10-19T00:36:41.860Z,2.42
2022-10-19T00:39:12.575Z,2.60
2022-10-19T00:41:39.541Z,2.33
2022-10-19T00:44:07.917Z,1.70
2022-10-19T00:46:37.426Z,2.97
2022-10-19T00:49:22.876Z,2.35
2022-10-19T00:51:53.645Z,2.15
2022-10-19T00:54:20.703Z,2.35
2022-10-19T00:56:50.481Z,2.25
2022-10-19T00:59:20.309Z,2.25
2022-10-19T01:01:48.872Z,2.15
2022-10-19T01:04:15.853Z,2.10
2022-10-19T01:06:42.607Z,2.47
2022-10-19T01:09:09.446Z,2.38
2022-10-19T01:12:01.202Z,2.20
2022-10-19T01:14:49.394Z,2.10
2022-10-19T01:17:32.897Z,2.42
2022-10-19T01:20:21.433Z,1.88
2022-10-19T01:23:06.695Z,2.50
2022-10-19T01:25:49.694Z,2.25
2022-10-19T01:28:38.650Z,1.70
2022-10-19T01:31:19.111Z,2.03
2022-10-19T01:33:54.490Z,1.80
2022-10-19T01:36:36.514Z,2.28
2022-10-19T01:39:33.553Z,1.88
2022-10-19T01:42:15.443Z,2.58
2022-10-19T01:44:52.201Z,2.10
2022-10-19T01:47:42.733Z,2.35
2022-10-19T01:50:33.701Z,1.92
2022-10-19T01:53:01.250Z,2.10
2022-10-19T01:55:28.626Z,2.35
2022-10-19T01:58:01.476Z,1.85
2022-10-19T02:00:31.185Z,2.00
2022-10-19T02:02:59.795Z,1.83
2022-10-19T02:05:31.656Z,2.17
2022-10-19T02:08:02.548Z,1.85
2022-10-19T02:10:31.500Z,2.15
2022-10-19T02:12:59.302Z,2.15
2022-10-19T02:15:29.008Z,2.38
2022-10-19T02:17:59.730Z,2.20
2022-10-19T02:20:28.216Z,1.92
2022-10-19T02:22:54.903Z,2.00
2022-10-19T02:25:22.593Z,1.77
2022-10-19T02:27:49.577Z,2.20
2022-10-19T02:30:19.578Z,2.20
2022-10-19T02:32:46.189Z,1.92
2022-10-19T02:35:14.381Z,1.95
2022-10-19T02:37:41.272Z,1.80
2022-10-19T02:40:09.130Z,1.95
2022-10-19T02:42:43.609Z,1.83
2022-10-19T02:45:17.342Z,1.98
2022-10-19T02:47:50.006Z,2.50
2022-10-19T02:50:19.177Z,1.63
2022-10-19T02:52:45.718Z,1.88
2022-10-19T02:55:12.335Z,2.13
2022-10-19T02:57:38.935Z,2.03
2022-10-19T03:00:07.305Z,1.90
2022-10-19T03:02:34.047Z,1.65
2022-10-19T03:05:00.733Z,1.75
2022-10-19T03:07:27.358Z,1.42
2022-10-19T03:09:54.165Z,1.92
2022-10-19T03:12:20.801Z,1.80
2022-10-19T03:14:55.697Z,1.50
2022-10-19T03:17:22.363Z,1.70
2022-10-19T03:19:48.957Z,1.80
2022-10-19T03:22:15.653Z,1.83
2022-10-19T03:24:42.289Z,1.90
2022-10-19T03:27:09.015Z,1.70
2022-10-19T03:29:35.623Z,1.75
2022-10-19T03:32:02.283Z,1.55
2022-10-19T03:34:29.007Z,1.63
2022-10-19T03:36:56.681Z,1.85
2022-10-19T03:39:23.334Z,1.70
2022-10-19T03:41:49.925Z,1.40
2022-10-19T03:44:16.775Z,1.52
2022-10-19T03:46:43.428Z,1.88
2022-10-19T03:49:10.652Z,2.83
2022-10-19T03:51:37.416Z,1.63
2022-10-19T03:54:07.116Z,1.80
2022-10-19T03:56:35.919Z,1.52
2022-10-19T03:59:04.182Z,2.38
2022-10-19T04:01:39.495Z,2.22
2022-10-19T04:04:14.880Z,1.65
2022-10-19T04:06:43.606Z,1.55
2022-10-19T04:09:13.434Z,2.00
2022-10-19T04:11:40.281Z,1.80
2022-10-19T04:14:07.258Z,1.60
2022-10-19T04:16:34.457Z,1.65
2022-10-19T04:19:01.112Z,2.10
2022-10-19T04:21:30.714Z,1.52
2022-10-19T04:24:17.816Z,2.63
2022-10-19T04:26:52.509Z,1.90
2022-10-19T04:29:22.784Z,1.70
2022-10-19T04:31:53.844Z,2.13
2022-10-19T04:34:20.746Z,1.90
2022-10-19T04:36:47.358Z,1.73
2022-10-19T04:39:14.000Z,1.95
2022-10-19T04:41:40.563Z,1.90
2022-10-19T04:44:07.350Z,1.42
2022-10-19T04:46:34.842Z,1.40
2022-10-19T04:49:04.137Z,1.55
2022-10-19T04:51:31.092Z,1.60
2022-10-19T04:53:59.596Z,2.15
2022-10-19T04:56:27.667Z,1.10
2022-10-19T04:58:57.414Z,1.40
2022-10-19T05:01:25.427Z,1.58
2022-10-19T05:08:56.472Z,1.70
2022-10-19T05:11:23.147Z,1.60
2022-10-19T05:13:49.765Z,1.60
2022-10-19T05:16:21.828Z,1.70
2022-10-19T05:18:55.945Z,1.70
2022-10-19T05:21:22.759Z,1.52
2022-10-19T05:23:52.213Z,1.30
2022-10-19T05:26:21.123Z,1.50
2022-10-19T05:28:48.870Z,1.80
2022-10-19T05:31:20.638Z,1.45
2022-10-19T05:33:47.640Z,1.50
2022-10-19T05:36:15.963Z,1.70
2022-10-19T05:38:43.604Z,1.42
2022-10-19T05:41:10.253Z,1.33
2022-10-19T05:43:37.055Z,1.50
2022-10-19T05:46:05.985Z,1.33
2022-10-19T05:48:35.586Z,1.38
2022-10-19T05:51:05.173Z,1.17
2022-10-19T05:53:33.268Z,1.40
2022-10-19T05:56:00.061Z,1.30
2022-10-19T05:58:27.061Z,1.40
2022-10-19T06:00:59.123Z,1.67
2022-10-19T06:03:26.329Z,1.38
2022-10-19T06:05:53.958Z,1.45
2022-10-19T06:08:21.987Z,1.45
2022-10-19T06:10:49.255Z,1.55
2022-10-19T06:13:17.288Z,1.52
2022-10-19T06:15:43.859Z,1.63
2022-10-19T06:18:12.545Z,1.70
2022-10-19T06:20:42.565Z,1.50
2022-10-19T06:23:09.246Z,1.73
2022-10-19T06:25:36.452Z,1.60
2022-10-19T06:28:04.230Z,1.83
2022-10-19T06:30:30.901Z,1.88
2022-10-19T06:32:59.394Z,2.00
2022-10-19T06:35:26.030Z,2.00
2022-10-19T06:37:52.583Z,2.45
2022-10-19T06:40:19.207Z,2.33
2022-10-19T06:42:45.817Z,2.60
2022-10-19T06:45:12.390Z,1.92
2022-10-19T06:47:39.295Z,1.60
2022-10-19T06:50:06.819Z,1.70
2022-10-19T06:52:34.912Z,2.13
2022-10-19T06:55:02.323Z,1.67
2022-10-19T06:57:29.033Z,2.00
2022-10-19T06:59:55.630Z,1.70
2022-10-19T07:02:22.315Z,1.33
2022-10-19T07:04:49.001Z,1.60
2022-10-19T07:07:15.658Z,1.90
2022-10-19T07:09:42.247Z,1.90
2022-10-19T07:12:10.731Z,1.70
2022-10-19T07:14:39.526Z,2.10
2022-10-19T07:17:07.148Z,1.73
2022-10-19T07:19:34.284Z,2.00
2022-10-19T07:22:00.926Z,2.40
2022-10-19T07:24:27.554Z,1.80
2022-10-19T07:26:54.368Z,1.30
2022-10-19T07:29:21.454Z,2.00
2022-10-19T07:31:48.170Z,1.70
2022-10-19T07:34:15.377Z,1.77
2022-10-19T07:36:45.972Z,1.65
2022-10-19T07:39:13.131Z,1.90
2022-10-19T07:41:40.321Z,1.67
2022-10-19T07:44:08.195Z,2.15
2022-10-19T07:46:39.555Z,1.67
2022-10-19T07:49:09.898Z,1.30
2022-10-19T07:51:37.857Z,2.25
2022-10-19T07:54:04.820Z,2.00
2022-10-19T07:56:31.754Z,1.60
2022-10-19T07:58:59.980Z,1.48
2022-10-19T08:01:32.891Z,2.10
2022-10-19T08:06:47.221Z,1.75
2022-10-19T08:09:33.338Z,1.45
2022-10-19T08:12:01.800Z,1.48
2022-10-19T08:14:28.408Z,1.58
2022-10-19T08:16:55.051Z,1.75
2022-10-19T08:19:22.610Z,1.73
2022-10-19T08:21:49.268Z,1.50
2022-10-19T08:24:17.650Z,1.58
2022-10-19T08:26:44.762Z,1.80
2022-10-19T08:29:19.768Z,1.50
2022-10-19T08:31:48.237Z,1.40
2022-10-19T08:34:15.796Z,1.52
2022-10-19T08:39:14.383Z,1.55
2022-10-19T08:41:40.997Z,1.38
2022-10-19T08:44:13.506Z,1.58
2022-10-19T08:47:02.544Z,1.65
2022-10-19T08:49:31.650Z,1.35
2022-10-19T08:52:01.535Z,2.25
2022-10-19T08:54:56.069Z,1.38
2022-10-19T08:57:39.962Z,1.50
2022-10-19T09:00:17.405Z,1.65
2022-10-19T09:03:13.213Z,1.20
2022-10-19T09:05:50.187Z,1.75
2022-10-19T09:08:18.426Z,1.67
2022-10-19T09:10:50.166Z,1.13
2022-10-19T09:13:20.274Z,1.65
2022-10-19T09:15:52.098Z,1.60
2022-10-19T09:18:30.150Z,1.33
2022-10-19T09:21:45.964Z,1.55
2022-10-19T09:24:27.197Z,1.70
2022-10-19T09:26:56.553Z,1.20
2022-10-19T09:29:29.475Z,1.35
2022-10-19T09:34:36.377Z,1.90
2022-10-19T09:37:03.350Z,1.75
2022-10-19T09:39:30.971Z,1.45
2022-10-19T09:42:10.879Z,1.70
2022-10-19T09:44:38.645Z,1.40
2022-10-19T09:47:37.897Z,1.52
2022-10-19T09:50:23.911Z,1.50
2022-10-19T09:52:53.114Z,1.20
2022-10-19T09:55:22.977Z,1.02
2022-10-19T09:57:58.411Z,1.25
2022-10-19T10:00:32.062Z,1.00
2022-10-19T10:02:58.679Z,1.60
2022-10-19T10:05:37.762Z,1.20
2022-10-19T10:08:12.137Z,1.65
2022-10-19T10:10:43.316Z,1.20
2022-10-19T10:13:20.927Z,1.45
2022-10-19T10:15:54.166Z,1.30
2022-10-19T10:18:23.175Z,1.23
2022-10-19T10:21:01.281Z,1.63
2022-10-19T10:23:36.153Z,1.60
2022-10-19T10:26:04.574Z,1.35
2022-10-19T10:28:32.045Z,1.60
2022-10-19T10:31:07.437Z,1.80
2022-10-19T10:33:45.336Z,2.40
2022-10-19T10:36:13.021Z,2.38
2022-10-19T10:38:46.993Z,2.15
2022-10-19T10:41:20.433Z,1.95
2022-10-19T10:43:56.661Z,2.17
2022-10-19T10:46:29.350Z,2.67
2022-10-19T10:49:02.177Z,1.70
2022-10-19T10:51:49.208Z,1.10
2022-10-19T10:54:24.761Z,1.52
2022-10-19T10:57:19.806Z,1.42
2022-10-19T11:00:15.799Z,1.30
2022-10-19T11:03:12.152Z,1.15
2022-10-19T11:05:48.194Z,1.25
2022-10-19T11:08:26.942Z,1.48
2022-10-19T11:11:06.468Z,1.30
2022-10-19T11:13:45.372Z,1.70
2022-10-19T11:16:23.760Z,1.65
2022-10-19T11:19:20.286Z,1.40
2022-10-19T11:22:23.637Z,1.15
2022-10-19T11:25:08.106Z,1.20
2022-10-19T11:28:07.019Z,1.20
2022-10-19T11:30:48.664Z,1.30
2022-10-19T11:33:40.953Z,1.13
2022-10-19T11:36:34.766Z,0.95
2022-10-19T11:39:19.435Z,1.48
2022-10-19T11:42:10.018Z,1.55
2022-10-19T11:45:11.678Z,1.33
2022-10-19T11:48:02.250Z,1.40
2022-10-19T11:50:32.369Z,1.42
2022-10-19T11:53:12.090Z,1.33
2022-10-19T11:55:53.014Z,1.50
2022-10-19T11:58:53.294Z,1.15
2022-10-19T12:01:41.455Z,1.20
2022-10-19T12:04:21.889Z,1.23
2022-10-19T12:07:19.122Z,1.80
2022-10-19T12:10:03.222Z,1.50
2022-10-19T12:12:47.850Z,1.35
2022-10-19T12:15:46.870Z,1.40
2022-10-19T12:18:17.503Z,2.72
2022-10-19T12:20:49.600Z,1.27
2022-10-19T12:23:34.152Z,1.15
2022-10-19T12:26:05.564Z,1.48
2022-10-19T12:28:35.446Z,1.40
2022-10-19T12:31:04.446Z,1.20
2022-10-19T12:33:38.093Z,1.55
2022-10-19T12:36:23.646Z,1.15
2022-10-19T12:39:07.060Z,1.27
2022-10-19T12:41:52.412Z,1.75
2022-10-19T12:44:53.810Z,1.83
2022-10-19T12:47:25.314Z,1.40
2022-10-19T12:49:55.053Z,1.15
2022-10-19T12:52:36.320Z,1.52
2022-10-19T12:55:12.559Z,1.63
2022-10-19T12:57:40.772Z,1.50
2022-10-19T13:00:34.249Z,1.08
2022-10-19T13:03:05.694Z,1.35
2022-10-19T13:05:33.445Z,1.33
2022-10-19T13:08:07.978Z,1.50
2022-10-19T13:10:37.663Z,1.10
2022-10-19T13:13:04.481Z,1.48
2022-10-19T13:15:34.291Z,1.02
2022-10-19T13:18:11.497Z,0.90
2022-10-19T13:20:38.061Z,1.20
2022-10-19T13:23:04.595Z,1.20
2022-10-19T13:25:38.710Z,1.10
2022-10-19T13:28:11.119Z,0.85
2022-10-19T13:30:46.666Z,1.15
2022-10-19T13:33:25.784Z,1.58
2022-10-19T13:35:58.472Z,0.90
2022-10-19T13:38:34.165Z,0.90
2022-10-19T13:41:21.757Z,1.30
2022-10-19T13:44:24.880Z,1.40
2022-10-19T13:47:04.320Z,0.93
2022-10-19T13:49:49.313Z,1.10
2022-10-19T13:52:43.228Z,1.33
2022-10-19T13:55:48.240Z,1.08
2022-10-19T13:58:53.494Z,0.93
2022-10-19T14:01:35.298Z,0.80
2022-10-19T14:04:16.253Z,1.00
2022-10-19T14:07:05.867Z,1.08
2022-10-19T14:10:04.092Z,0.75
2022-10-19T14:12:33.898Z,0.85
2022-10-19T14:15:00.555Z,1.25
2022-10-19T14:17:34.055Z,0.80
2022-10-19T14:20:01.432Z,0.82
2022-10-19T14:22:51.870Z,1.20
2022-10-19T14:25:56.601Z,1.95
2022-10-19T14:28:24.061Z,1.23
2022-10-19T14:31:06.292Z,1.13
2022-10-19T14:33:36.142Z,1.48
2022-10-19T14:36:02.818Z,1.02
2022-10-19T14:38:43.402Z,1.10
2022-10-19T14:41:28.109Z,1.25
2022-10-19T14:43:56.689Z,1.50
2022-10-19T14:46:33.853Z,1.40
2022-10-19T14:49:03.057Z,1.40
2022-10-19T14:51:38.133Z,1.50
2022-10-19T14:54:26.311Z,1.20
2022-10-19T14:57:01.185Z,1.25
2022-10-19T14:59:27.815Z,1.25
2022-10-19T15:01:58.443Z,1.45
2022-10-19T15:04:29.765Z,2.13
2022-10-19T15:07:18.869Z,2.25
2022-10-19T15:10:20.273Z,1.80
2022-10-19T15:13:00.748Z,0.90
2022-10-19T15:15:31.970Z,1.02
2022-10-19T15:18:06.245Z,1.27
2022-10-19T15:20:49.433Z,1.30
2022-10-19T15:23:47.189Z,1.40
2022-10-19T15:26:26.008Z,1.40
2022-10-19T15:28:54.519Z,1.10
2022-10-19T15:31:25.100Z,0.68
2022-10-19T15:34:00.565Z,1.17
2022-10-19T15:36:29.514Z,1.38
2022-10-19T15:39:11.588Z,0.95
2022-10-19T15:41:50.328Z,1.58
2022-10-19T15:44:41.121Z,3.40
2022-10-19T15:47:21.478Z,3.28
2022-10-19T15:49:56.876Z,2.90
2022-10-19T15:52:26.188Z,8.30
2022-10-19T15:54:54.897Z,4.70
2022-10-19T15:57:30.605Z,4.18
2022-10-19T16:00:00.736Z,4.72
2022-10-19T16:02:28.073Z,7.07
2022-10-19T16:04:55.323Z,5.35
2022-10-19T16:07:26.876Z,4.35
2022-10-19T16:09:54.261Z,2.85
2022-10-19T16:12:21.971Z,1.98
2022-10-19T16:14:48.704Z,4.50
2022-10-19T16:17:16.232Z,5.70
2022-10-19T16:19:44.259Z,6.20
2022-10-19T16:22:12.549Z,2.47
2022-10-19T16:24:39.490Z,1.42
2022-10-19T16:27:07.631Z,1.35
2022-10-19T16:29:34.485Z,1.10
2022-10-19T16:32:01.222Z,1.30
2022-10-19T16:34:28.014Z,1.38
2022-10-19T16:36:54.627Z,1.48
2022-10-19T16:39:21.272Z,1.40
2022-10-19T16:41:47.828Z,1.30
2022-10-19T16:44:14.481Z,1.27
2022-10-19T16:46:41.197Z,1.20
2022-10-19T16:49:08.017Z,2.30
2022-10-19T16:51:36.066Z,5.68
2022-10-19T16:54:04.761Z,5.57
2022-10-19T16:56:31.849Z,7.30
2022-10-19T16:59:06.521Z,23.10
2022-10-19T17:01:34.841Z,7.28
2022-10-19T17:04:01.554Z,2.25
2022-10-19T17:06:28.964Z,17.73
2022-10-19T17:11:44.293Z,6.43
2022-10-19T17:14:12.744Z,4.70
2022-10-19T17:16:40.159Z,5.97
2022-10-19T17:19:08.096Z,7.68
2022-10-19T17:21:39.785Z,10.98
2022-10-19T17:24:08.258Z,9.35
2022-10-19T17:26:37.332Z,6.88
2022-10-19T17:29:04.901Z,5.43
2022-10-19T17:31:32.594Z,4.68
2022-10-19T17:34:00.634Z,2.80
2022-10-19T17:36:29.618Z,2.50
2022-10-19T17:38:59.074Z,2.03
2022-10-19T17:41:26.849Z,4.32
2022-10-19T17:43:54.417Z,21.70
2022-10-19T17:46:26.841Z,14.00
2022-10-19T17:48:53.521Z,11.32
2022-10-19T17:51:23.663Z,7.97
2022-10-19T17:53:51.105Z,7.70
2022-10-19T17:56:19.898Z,4.68
2022-10-19T17:58:48.012Z,5.22
2022-10-19T18:01:16.576Z,4.47
2022-10-19T18:03:43.597Z,3.88
2022-10-19T18:06:16.306Z,2.72
2022-10-19T18:08:45.693Z,2.83
2022-10-19T18:11:19.325Z,3.28
2022-10-19T18:13:46.529Z,2.53
2022-10-19T18:16:19.754Z,2.65
2022-10-19T18:18:49.298Z,2.75
2022-10-19T18:21:18.418Z,2.58
2022-10-19T18:23:45.882Z,2.63
2022-10-19T18:26:15.545Z,2.67
2022-10-19T18:28:43.479Z,3.13
2022-10-19T18:31:15.642Z,2.42
2022-10-19T18:33:42.837Z,2.30
2022-10-19T18:36:10.549Z,2.35
2022-10-19T18:38:38.348Z,2.58
2022-10-19T18:43:39.798Z,3.00
2022-10-19T18:46:07.566Z,3.90
2022-10-19T18:48:36.138Z,3.40
2022-10-19T18:51:06.530Z,3.33
2022-10-19T18:53:33.934Z,2.65
2022-10-19T18:56:06.406Z,3.03
2022-10-19T18:58:33.792Z,2.80
2022-10-19T19:01:06.267Z,2.83
2022-10-19T19:03:33.728Z,3.08
2022-10-19T19:06:01.894Z,3.10
2022-10-19T19:08:29.191Z,3.55
2022-10-19T19:10:57.172Z,3.28
2022-10-19T19:13:24.027Z,3.22
2022-10-19T19:15:58.685Z,2.90
2022-10-19T19:18:26.139Z,3.45
2022-10-19T19:20:53.289Z,3.30
2022-10-19T19:23:20.193Z,4.85
2022-10-19T19:25:46.945Z,4.60
2022-10-19T19:28:13.582Z,5.18
2022-10-19T19:30:45.356Z,5.05
2022-10-19T19:33:12.658Z,4.68
2022-10-19T19:35:43.683Z,4.13
2022-10-19T19:38:11.540Z,3.10
2022-10-19T19:40:42.012Z,3.42
2022-10-19T19:43:09.804Z,3.58
2022-10-19T19:45:37.906Z,3.10
2022-10-19T19:48:05.908Z,2.80
2022-10-19T19:50:33.538Z,3.15
2022-10-19T19:53:00.557Z,3.08
2022-10-19T19:55:27.825Z,3.60
2022-10-19T19:57:55.264Z,2.97
2022-10-19T20:00:23.720Z,3.70
2022-10-19T20:02:54.893Z,4.10
2022-10-19T20:05:22.373Z,4.25
2022-10-19T20:07:49.204Z,3.38
2022-10-19T20:10:16.180Z,3.92
2022-10-19T20:12:46.588Z,3.97
2022-10-19T20:15:15.913Z,3.58
2022-10-19T20:17:43.404Z,3.47
2022-10-19T20:20:12.249Z,3.63
2022-10-19T20:22:39.067Z,3.78
2022-10-19T20:25:06.222Z,3.42
2022-10-19T20:27:36.260Z,4.10
2022-10-19T20:30:03.767Z,4.18
2022-10-19T20:32:30.493Z,4.18
2022-10-19T20:34:57.091Z,3.92
2022-10-19T20:37:24.273Z,4.60
2022-10-19T20:39:51.089Z,4.60
2022-10-19T20:42:18.631Z,5.22
2022-10-19T20:44:45.449Z,4.47
2022-10-19T20:47:12.037Z,4.85
2022-10-19T20:49:38.732Z,4.93
2022-10-19T20:52:05.288Z,5.70
2022-10-19T20:56:58.891Z,5.60
2022-10-19T20:59:27.609Z,6.25
2022-10-19T21:01:57.108Z,6.88
2022-10-19T21:04:25.557Z,6.07
2022-10-19T21:06:53.015Z,5.13
2022-10-19T21:09:22.009Z,5.07
2022-10-19T21:11:50.502Z,6.07
2022-10-19T21:14:26.920Z,6.70
2022-10-19T21:16:57.657Z,6.97
2022-10-19T21:19:26.228Z,7.70
2022-10-19T21:21:55.500Z,7.22
2022-10-19T21:24:24.643Z,6.95
2022-10-19T21:29:22.945Z,5.97
2022-10-19T21:31:52.480Z,5.07
2022-10-19T21:34:21.989Z,4.30
2022-10-19T21:36:48.942Z,4.80
2022-10-19T21:39:15.870Z,5.93
2022-10-19T21:41:42.616Z,7.05
2022-10-19T21:44:09.583Z,6.35
2022-10-19T21:46:36.289Z,7.50
2022-10-19T21:49:03.024Z,8.40
2022-10-19T21:51:44.755Z,9.27
2022-10-19T21:54:16.730Z,7.97
2022-10-19T21:56:44.015Z,6.28
2022-10-19T21:59:12.060Z,5.57
2022-10-19T22:01:41.172Z,4.70
2022-10-19T22:04:13.724Z,5.53
2022-10-19T22:06:41.225Z,5.63
2022-10-19T22:09:10.367Z,6.55
2022-10-19T22:11:36.993Z,7.10
2022-10-19T22:14:04.515Z,7.97
2022-10-19T22:16:33.450Z,8.52
2022-10-19T22:19:00.055Z,9.93
2022-10-19T22:21:29.571Z,9.70
2022-10-19T22:24:00.335Z,7.57
2022-10-19T22:26:30.006Z,8.75
2022-10-19T22:28:58.445Z,8.35
2022-10-19T22:31:26.936Z,7.15
2022-10-19T22:33:53.601Z,6.80
2022-10-19T22:36:20.227Z,8.18
2022-10-19T22:38:46.880Z,9.05
2022-10-19T22:41:13.421Z,9.77
2022-10-19T22:43:39.993Z,9.60
2022-10-19T22:46:06.655Z,10.38
2022-10-19T22:48:33.233Z,9.35
2022-10-19T22:50:59.809Z,9.48
2022-10-19T22:53:26.434Z,9.68
2022-10-19T22:55:52.977Z,10.68
2022-10-19T22:58:19.957Z,9.95
2022-10-19T23:00:56.774Z,8.95
2022-10-19T23:03:23.346Z,9.77
2022-10-19T23:05:49.974Z,9.00
2022-10-19T23:08:16.507Z,9.15
2022-10-19T23:10:43.094Z,9.13
2022-10-19T23:13:11.014Z,9.35
2022-10-19T23:15:41.656Z,11.40
2022-10-19T23:18:10.755Z,11.40
2022-10-19T23:20:37.367Z,12.95
2022-10-19T23:23:04.260Z,14.75
2022-10-19T23:28:02.325Z,13.93
2022-10-19T23:30:28.889Z,15.55
2022-10-19T23:32:55.441Z,14.60
2022-10-19T23:35:22.077Z,14.90
2022-10-19T23:37:48.687Z,14.98
2022-10-19T23:40:15.282Z,14.60
2022-10-19T23:42:41.902Z,15.35
2022-10-19T23:45:08.821Z,15.52
2022-10-19T23:47:35.583Z,15.30
2022-10-19T23:50:02.323Z,15.18
2022-10-19T23:52:28.912Z,16.20
2022-10-19T23:54:55.509Z,17.08
2022-10-19T23:57:22.086Z,17.40
2022-10-19T23:59:48.658Z,17.83
